Time;durP1;ratioP1;P1;durP2;ratioP2;P2;SDS_P1;SDS_P2;PMS_P1;PMS_P2;Temp;Humidity;BMP_temperature;BMP_pressure;BME280_temperature;BME280_humidity;BME280_pressure;Samples;Min_cycle;Max_cycle;Signal;HPM_P1;HPM_P2
2022/05/24 00:00:32;;;;;;;0.10;0.10;;;;;;;23.22;48.32;99823.06;5116544;28;20066;-31
2022/05/24 00:03:00;;;;;;;0.00;0.00;;;;;;;23.22;48.06;99817.53;5116539;28;20075;-32
2022/05/24 00:05:27;;;;;;;;;;;;;;;23.22;48.00;99814.75;5117213;28;20089;-31
2022/05/24 00:07:53;;;;;;;0.10;0.10;;;;;;;23.21;48.17;99821.47;5096203;28;20014;-31
2022/05/24 00:10:22;;;;;;;0.00;0.00;;;;;;;23.22;48.25;99822.28;5119409;28;20443;-32
2022/05/24 00:12:48;;;;;;;0.00;0.00;;;;;;;23.21;48.20;99824.22;5086066;28;20123;-31
2022/05/24 00:15:30;;;;;;;0.10;0.10;;;;;;;23.21;48.07;99817.88;5119426;28;20385;-32
2022/05/24 00:18:18;;;;;;;0.10;0.10;;;;;;;23.21;48.24;99823.44;5117071;28;20093;-32
2022/05/24 00:20:46;;;;;;;0.10;0.10;;;;;;;23.21;48.20;99820.66;5105858;28;20458;-31
2022/05/24 00:23:12;;;;;;;0.10;0.10;;;;;;;23.20;48.19;99811.50;5099234;28;20126;-31
2022/05/24 00:25:41;;;;;;;0.10;0.10;;;;;;;23.21;48.16;99809.53;5120189;28;20035;-33
2022/05/24 00:28:07;;;;;;;0.10;0.10;;;;;;;23.20;48.27;99808.72;5116814;28;20072;-33
2022/05/24 00:30:36;;;;;;;0.10;0.10;;;;;;;23.19;48.18;99800.75;5101982;28;20124;-32
2022/05/24 00:33:02;;;;;;;0.10;0.10;;;;;;;23.19;48.09;99803.50;5117845;28;20102;-31
2022/05/24 00:35:28;;;;;;;0.28;0.28;;;;;;;23.18;48.08;99786.00;5115045;28;20470;-32
2022/05/24 00:37:55;;;;;;;0.10;0.10;;;;;;;23.19;48.09;99790.44;5099628;28;20130;-32
2022/05/24 00:41:00;;;;;;;0.10;0.10;;;;;;;23.19;48.21;99784.06;5114699;28;20071;-31
2022/05/24 00:43:40;;;;;;;0.10;0.10;;;;;;;23.19;48.04;99784.06;5094443;28;20118;-32
2022/05/24 00:46:14;;;;;;;0.10;0.10;;;;;;;23.17;48.17;99778.84;5118982;28;20508;-31
2022/05/24 00:48:48;;;;;;;0.10;0.10;;;;;;;23.18;48.22;99777.69;5113588;28;20079;-31
2022/05/24 00:51:27;;;;;;;0.00;0.00;;;;;;;23.18;48.28;99791.56;5102394;28;20074;-32
2022/05/24 00:53:54;;;;;;;0.10;0.10;;;;;;;23.18;48.25;99799.09;5114517;28;20074;-31
2022/05/24 00:56:35;;;;;;;0.00;0.00;;;;;;;23.18;48.14;99797.13;5117935;28;20077;-32
2022/05/24 00:59:05;;;;;;;0.10;0.10;;;;;;;23.18;48.26;99796.31;5099948;28;20130;-33
2022/05/24 01:01:38;;;;;;;0.05;0.05;;;;;;;23.18;48.26;99796.31;5118389;28;20066;-31
2022/05/24 01:04:04;;;;;;;0.10;0.10;;;;;;;23.17;48.13;99794.69;5118270;28;20057;-31
2022/05/24 01:06:30;;;;;;;0.10;0.10;;;;;;;23.18;48.27;99793.53;5117720;28;20514;-32
2022/05/24 01:08:59;;;;;;;0.10;0.10;;;;;;;23.17;48.25;99794.69;5116938;28;20131;-34
2022/05/24 01:11:24;;;;;;;0.10;0.10;;;;;;;23.17;48.23;99795.50;5116100;27;20129;-30
2022/05/24 01:13:51;;;;;;;0.10;0.10;;;;;;;23.16;48.20;99802.22;5115954;28;20062;-30
2022/05/24 01:16:17;;;;;;;0.10;0.10;;;;;;;23.17;48.18;99800.25;5115850;28;20085;-31
2022/05/24 01:18:43;;;;;;;0.10;0.10;;;;;;;23.17;48.21;99797.47;5120283;28;20083;-30
2022/05/24 01:21:12;;;;;;;0.10;0.10;;;;;;;23.17;48.18;99798.28;5122939;28;20535;-33
2022/05/24 01:26:46;;;;;;;0.00;0.00;;;;;;;23.16;48.20;99804.19;5177014;27;20115;-26
2022/05/24 01:29:12;;;;;;;0.10;0.10;;;;;;;23.16;48.23;99802.22;5138446;27;20080;-26
2022/05/24 01:37:11;;;;;;;0.10;0.10;;;;;;;23.15;48.37;99802.56;5137994;27;20474;-26
2022/05/24 01:39:38;;;;;;;0.10;0.10;;;;;;;23.16;48.26;99798.63;5156797;27;20043;-26
2022/05/24 01:42:04;;;;;;;0.00;0.00;;;;;;;23.14;48.16;99796.16;5138021;27;20121;-26
2022/05/24 01:44:48;;;;;;;0.10;0.10;;;;;;;23.14;48.37;99801.72;5138440;27;20070;-26
2022/05/24 01:47:17;;;;;;;0.10;0.10;;;;;;;23.15;48.20;99805.34;5136886;27;20055;-26
2022/05/24 01:49:48;;;;;;;0.10;0.10;;;;;;;23.14;48.34;99801.72;5155119;27;20501;-27
2022/05/24 01:52:21;;;;;;;0.10;0.10;;;;;;;23.14;48.20;99801.72;5153224;27;20469;-26
2022/05/24 01:54:50;;;;;;;0.00;0.00;;;;;;;23.13;48.06;99797.31;5155021;27;20089;-26
2022/05/24 01:57:19;;;;;;;0.10;0.10;;;;;;;23.13;48.21;99797.31;5152803;27;20445;-26
2022/05/24 01:59:47;;;;;;;0.10;0.10;;;;;;;23.14;48.17;99789.78;5152747;27;20129;-26
2022/05/24 02:02:13;;;;;;;0.00;0.00;;;;;;;23.13;48.30;99788.97;5157644;27;20491;-26
2022/05/24 02:04:38;;;;;;;0.10;0.10;;;;;;;23.13;48.08;99783.44;5156912;27;20031;-25
2022/05/24 02:07:12;;;;;;;0.10;0.10;;;;;;;23.13;48.26;99786.22;5153996;27;20410;-25
2022/05/24 02:09:41;;;;;;;0.10;0.10;;;;;;;23.13;48.33;99786.22;5156833;27;20066;-26
2022/05/24 02:12:11;;;;;;;0.10;0.10;;;;;;;23.13;48.21;99785.41;5136796;27;20058;-25
2022/05/24 02:14:40;;;;;;;0.10;0.10;;;;;;;23.12;48.12;99798.47;5136853;27;20085;-25
2022/05/24 02:17:12;;;;;;;0.10;0.10;;;;;;;23.12;48.14;99806.00;5154566;27;20462;-25
2022/05/24 02:19:43;;;;;;;0.10;0.10;;;;;;;23.13;48.16;99811.19;5153445;27;20482;-25
2022/05/24 02:22:12;;;;;;;0.10;0.10;;;;;;;23.13;48.23;99810.38;5154177;27;20504;-26
2022/05/24 02:24:38;;;;;;;0.10;0.10;;;;;;;23.12;48.11;99811.53;5137709;27;20126;-26
2022/05/24 02:27:04;;;;;;;0.10;0.10;;;;;;;23.12;48.23;99814.31;5154769;27;20043;-26
2022/05/24 02:29:31;;;;;;;0.10;0.10;;;;;;;23.11;48.42;99810.75;5156381;27;20130;-26
2022/05/24 02:31:57;;;;;;;0.10;0.10;;;;;;;23.12;48.00;99806.00;5154325;27;20070;-26
2022/05/24 02:34:23;;;;;;;0.10;0.10;;;;;;;23.11;48.19;99802.41;5154418;27;20460;-26
2022/05/24 02:36:49;;;;;;;0.10;0.10;;;;;;;23.11;48.08;99805.19;5147681;27;20035;-26
2022/05/24 02:39:14;;;;;;;0.10;0.10;;;;;;;23.11;48.23;99813.50;5122084;27;20095;-26
2022/05/24 02:41:40;;;;;;;0.10;0.10;;;;;;;23.11;48.38;99816.28;5140658;27;20389;-26
2022/05/24 02:44:09;;;;;;;0.10;0.10;;;;;;;23.10;48.20;99811.91;5139085;27;20169;-26
2022/05/24 02:46:37;;;;;;;0.10;0.10;;;;;;;23.10;48.17;99800.78;5141387;27;20121;-26
2022/05/24 02:49:03;;;;;;;0.10;0.10;;;;;;;23.10;48.32;99799.94;5136594;27;20095;-26
2022/05/24 02:51:29;;;;;;;0.10;0.10;;;;;;;23.10;48.33;99792.44;5123923;27;20071;-26
2022/05/24 02:53:54;;;;;;;0.10;0.10;;;;;;;23.11;48.20;99793.25;5139103;27;20061;-25
2022/05/24 02:56:20;;;;;;;0.10;0.10;;;;;;;23.10;48.19;99791.63;5140168;27;20374;-25
2022/05/24 02:58:46;;;;;;;0.10;0.10;;;;;;;23.11;48.24;99798.81;5135951;27;20050;-26
2022/05/24 03:01:19;;;;;;;0.10;0.10;;;;;;;23.11;48.18;99799.63;5139046;27;20482;-26
2022/05/24 03:03:46;;;;;;;0.10;0.10;;;;;;;23.09;48.08;99799.13;5137837;27;20082;-26
2022/05/24 03:06:12;;;;;;;0.10;0.10;;;;;;;23.09;48.02;99790.81;5143513;27;20042;-25
2022/05/24 03:11:23;;;;;;;0.10;0.10;;;;;;;23.09;48.35;99798.31;5127072;27;20117;-26
2022/05/24 03:14:20;;;;;;;0.10;0.10;;;;;;;23.09;48.11;99804.69;5140583;27;20485;-26
2022/05/24 03:16:35;;;;;;;0.10;0.10;;;;;;;23.11;48.15;99804.38;5124857;27;20079;-26
2022/05/24 03:19:01;;;;;;;0.10;0.10;;;;;;;23.09;48.15;99793.56;5135220;27;20082;-25
2022/05/24 03:21:26;;;;;;;0.10;0.10;;;;;;;23.09;48.16;99795.53;5144811;27;20041;-26
2022/05/24 03:23:52;;;;;;;0.00;0.00;;;;;;;23.08;48.10;99794.72;5140109;27;20443;-26
2022/05/24 03:26:17;;;;;;;0.10;0.10;;;;;;;23.09;48.17;99787.22;5141369;27;20051;-26
2022/05/24 03:28:43;;;;;;;0.10;0.10;;;;;;;23.08;48.27;99786.41;5139093;27;20043;-26
2022/05/24 03:31:09;;;;;;;0.10;0.10;;;;;;;23.08;48.20;99789.19;5144078;27;20148;-25
2022/05/24 03:33:35;;;;;;;0.10;0.10;;;;;;;23.08;48.25;99791.97;5138570;27;20035;-25
2022/05/24 03:36:01;;;;;;;0.00;0.00;;;;;;;23.08;48.17;99800.28;5139999;27;20051;-26
2022/05/24 03:38:28;;;;;;;0.10;0.10;;;;;;;23.08;48.26;99808.63;5141442;27;20462;-26
2022/05/24 03:40:55;;;;;;;0.10;0.10;;;;;;;23.07;48.10;99801.44;5137813;27;20078;-25
2022/05/24 03:43:21;;;;;;;0.10;0.10;;;;;;;23.08;48.16;99811.41;5140600;27;20394;-26
2022/05/24 03:45:47;;;;;;;0.10;0.10;;;;;;;23.08;48.08;99797.50;5140076;27;20498;-26
2022/05/24 03:48:13;;;;;;;0.10;0.10;;;;;;;23.08;48.26;99799.47;5136031;27;20055;-26
2022/05/24 03:50:39;;;;;;;0.10;0.10;;;;;;;23.08;48.16;99796.69;5140292;27;20074;-25
2022/05/24 03:53:05;;;;;;;0.10;0.10;;;;;;;23.07;48.27;99797.84;5140866;27;20138;-25
2022/05/24 03:55:30;;;;;;;0.00;0.00;;;;;;;23.07;48.34;99811.75;5139122;27;20043;-26
2022/05/24 03:58:00;;;;;;;0.10;0.10;;;;;;;23.06;48.11;99804.53;5134800;27;20059;-26
2022/05/24 04:00:27;;;;;;;0.10;0.10;;;;;;;23.08;48.19;99805.03;5139347;27;20611;-25
2022/05/24 04:02:52;;;;;;;0.10;0.10;;;;;;;23.06;48.10;99816.47;5139448;27;20077;-27
2022/05/24 04:05:18;;;;;;;0.10;0.10;;;;;;;23.07;48.17;99825.63;5138101;27;20047;-26
2022/05/24 04:07:44;;;;;;;0.10;0.10;;;;;;;23.06;48.13;99833.16;5141998;27;20067;-26
2022/05/24 04:10:12;;;;;;;0.10;0.10;;;;;;;23.06;48.28;99843.41;5139255;27;20057;-25
2022/05/24 04:12:37;;;;;;;0.10;0.10;;;;;;;23.06;48.20;99840.63;5121116;27;20078;-26
2022/05/24 04:15:03;;;;;;;0.10;0.10;;;;;;;23.06;48.23;99843.41;5140233;27;20058;-26
2022/05/24 04:17:35;;;;;;;0.10;0.10;;;;;;;23.06;48.25;99862.84;5120459;27;20050;-26
2022/05/24 04:20:00;;;;;;;0.10;0.10;;;;;;;23.05;48.20;99862.03;5132991;27;20047;-25
2022/05/24 04:22:26;;;;;;;0.10;0.10;;;;;;;23.05;48.19;99859.25;5120144;27;20070;-25
2022/05/24 04:24:52;;;;;;;0.10;0.10;;;;;;;23.05;48.27;99867.59;5141426;27;20042;-26
2022/05/24 04:27:17;;;;;;;0.20;0.20;;;;;;;23.05;48.20;99862.03;5137796;27;20047;-26
2022/05/24 04:29:43;;;;;;;0.10;0.10;;;;;;;23.05;48.31;99867.59;5139628;27;20457;-26
2022/05/24 04:32:09;;;;;;;0.10;0.10;;;;;;;23.05;48.32;99873.16;5137046;27;20050;-25
2022/05/24 04:34:36;;;;;;;0.10;0.10;;;;;;;23.04;48.28;99875.13;5136695;27;20432;-26
2022/05/24 04:37:01;;;;;;;0.10;0.10;;;;;;;23.03;48.21;99861.56;5120389;27;20528;-26
2022/05/24 04:39:29;;;;;;;0.00;0.00;;;;;;;23.04;48.21;99857.63;5134404;27;20039;-25
2022/05/24 04:42:25;;;;;;;0.10;0.10;;;;;;;23.03;48.31;99851.28;5133952;27;20422;-26
2022/05/24 04:44:40;;;;;;;0.20;0.20;;;;;;;23.03;48.22;99865.16;5122909;27;20543;-26
2022/05/24 04:47:09;;;;;;;0.10;0.10;;;;;;;23.04;48.21;99860.41;5136146;27;20053;-26
2022/05/24 04:49:36;;;;;;;0.10;0.10;;;;;;;23.03;48.29;99865.16;5139444;27;20129;-25
2022/05/24 04:52:02;;;;;;;0.20;0.20;;;;;;;23.03;48.22;99872.69;5138459;27;20070;-25
2022/05/24 04:54:28;;;;;;;0.10;0.10;;;;;;;23.04;48.20;99874.31;5134268;27;20170;-26
2022/05/24 04:56:53;;;;;;;0.10;0.10;;;;;;;23.03;48.22;99884.59;5137392;27;20469;-25
2022/05/24 04:59:19;;;;;;;0.00;0.00;;;;;;;23.02;48.26;99882.97;5137707;27;20047;-29
2022/05/24 05:01:45;;;;;;;0.10;0.10;;;;;;;23.03;48.45;99895.69;5138027;27;20050;-28
2022/05/24 05:04:11;;;;;;;0.10;0.10;;;;;;;23.03;48.29;99906.00;5134421;27;20462;-28
2022/05/24 05:06:37;;;;;;;0.10;0.10;;;;;;;23.03;48.30;99914.31;5135235;27;20493;-28
2022/05/24 05:09:03;;;;;;;0.10;0.10;;;;;;;23.02;48.32;99927.41;5134970;27;20042;-28
2022/05/24 05:11:29;;;;;;;0.10;0.10;;;;;;;23.03;48.03;99917.09;5135630;27;20196;-28
2022/05/24 05:13:54;;;;;;;0.10;0.10;;;;;;;23.02;48.33;99919.06;5137173;27;20532;-28
2022/05/24 05:16:20;;;;;;;0.10;0.10;;;;;;;23.02;48.37;99937.69;5138120;27;20065;-28
2022/05/24 05:18:46;;;;;;;0.10;0.10;;;;;;;23.01;48.25;99936.88;5132489;27;20043;-28
2022/05/24 05:21:11;;;;;;;0.10;0.10;;;;;;;23.02;48.14;99943.25;5133782;27;20393;-28
2022/05/24 05:23:37;;;;;;;0.10;0.10;;;;;;;23.01;48.04;99947.16;5130343;27;20052;-28
2022/05/24 05:26:03;;;;;;;0.10;0.10;;;;;;;23.02;48.16;99954.34;5139633;27;20043;-28
2022/05/24 05:28:29;;;;;;;0.10;0.10;;;;;;;23.02;48.16;99957.94;5138153;27;20501;-28
2022/05/24 05:31:26;;;;;;;0.10;0.10;;;;;;;23.00;48.16;99963.00;5138409;27;20049;-28
2022/05/24 05:33:40;;;;;;;0.10;0.10;;;;;;;23.01;48.05;99967.44;5123472;27;20050;-28
2022/05/24 05:36:06;;;;;;;0.10;0.10;;;;;;;23.02;47.99;99976.56;5134931;27;20051;-28
2022/05/24 05:38:32;;;;;;;0.10;0.10;;;;;;;23.01;48.05;99974.91;5134188;27;20051;-28
2022/05/24 05:40:59;;;;;;;0.10;0.10;;;;;;;23.00;47.94;99978.84;5136486;27;20133;-27
2022/05/24 05:43:24;;;;;;;0.10;0.10;;;;;;;23.00;47.85;99990.75;5136854;27;20073;-27
2022/05/24 05:45:52;;;;;;;0.10;0.10;;;;;;;23.00;48.09;99995.50;5139034;27;20401;-28
2022/05/24 05:48:18;;;;;;;0.00;0.00;;;;;;;23.00;47.85;99995.50;5131017;27;20035;-28
2022/05/24 05:50:44;;;;;;;0.10;0.10;;;;;;;23.00;48.17;99990.75;5136556;27;20665;-28
2022/05/24 05:53:09;;;;;;;0.05;0.05;;;;;;;23.00;47.55;99992.72;5133830;27;20051;-28
2022/05/24 05:55:37;;;;;;;0.10;0.10;;;;;;;23.00;47.87;100001.88;5131585;27;20093;-27
2022/05/24 05:58:02;;;;;;;0.10;0.10;;;;;;;23.00;47.76;99995.50;5110301;27;20135;-28
2022/05/24 06:00:28;;;;;;;0.10;0.10;;;;;;;22.99;47.86;100003.03;5130469;27;20043;-28
2022/05/24 06:02:54;;;;;;;0.03;0.03;;;;;;;23.01;47.76;100005.47;5133944;27;20046;-29
2022/05/24 06:05:26;;;;;;;0.10;0.10;;;;;;;23.00;47.75;100024.09;5135315;27;20047;-28
2022/05/24 06:07:51;;;;;;;0.00;0.00;;;;;;;22.99;47.85;100018.88;5115931;27;20134;-28
2022/05/24 06:10:17;;;;;;;0.10;0.10;;;;;;;22.98;47.80;100029.16;5131266;27;20073;-29
2022/05/24 06:12:43;;;;;;;0.10;0.10;;;;;;;22.99;47.75;100025.25;5140240;27;20066;-28
2022/05/24 06:15:09;;;;;;;0.10;0.10;;;;;;;22.99;47.63;100027.19;5137800;27;20043;-27
2022/05/24 06:17:45;;;;;;;0.10;0.10;;;;;;;22.99;47.74;100029.97;5137873;27;20039;-28
2022/05/24 06:20:11;;;;;;;0.10;0.10;;;;;;;22.99;47.76;100021.66;5140101;27;20077;-29
2022/05/24 06:22:37;;;;;;;0.10;0.10;;;;;;;22.70;47.01;100016.72;5137051;27;20062;-36
2022/05/24 06:25:03;;;;;;;0.10;0.10;;;;;;;22.62;47.58;100031.41;5139195;27;20045;-28
2022/05/24 06:27:29;;;;;;;0.10;0.10;;;;;;;22.85;47.34;100037.66;5139088;27;20776;-28
2022/05/24 06:29:54;;;;;;;0.10;0.10;;;;;;;22.96;47.21;100038.97;5139354;27;20043;-28
2022/05/24 06:32:20;;;;;;;0.10;0.10;;;;;;;22.98;47.40;100045.00;5137967;27;20050;-29
2022/05/24 06:34:48;;;;;;;0.00;0.00;;;;;;;23.00;47.35;100043.53;5138765;27;20050;-28
2022/05/24 06:37:15;;;;;;;0.20;0.20;;;;;;;23.02;47.36;100052.34;5138170;27;20141;-27
2022/05/24 06:39:41;;;;;;;0.10;0.10;;;;;;;23.03;47.38;100053.97;5135578;27;20064;-28
2022/05/24 06:42:07;;;;;;;0.10;0.10;;;;;;;23.03;47.44;100053.97;5136362;27;20572;-28
2022/05/24 06:44:33;;;;;;;0.10;0.10;;;;;;;23.05;47.32;100053.66;5136852;27;20070;-28
2022/05/24 06:46:58;;;;;;;0.10;0.10;;;;;;;23.05;47.39;100056.44;5133576;27;20510;-28
2022/05/24 06:49:24;;;;;;;0.10;0.10;;;;;;;23.07;47.34;100056.13;5133813;27;20079;-29
2022/05/24 06:51:50;;;;;;;0.10;0.10;;;;;;;23.06;47.29;100060.84;5140001;27;20046;-28
2022/05/24 06:54:15;;;;;;;0.10;0.10;;;;;;;23.07;47.49;100067.22;5135945;27;20092;-28
2022/05/24 06:56:41;;;;;;;0.10;0.10;;;;;;;23.08;47.39;100066.88;5137932;27;20048;-29
2022/05/24 07:04:38;;;;;;;0.10;0.10;;;;;;;23.09;47.34;100082.41;5108670;27;21350;-28
2022/05/24 07:07:04;;;;;;;0.10;0.10;;;;;;;23.09;47.30;100079.63;5127051;27;20043;-27
2022/05/24 07:09:31;;;;;;;0.10;0.10;;;;;;;23.11;47.34;100080.13;5124796;27;20050;-29
2022/05/24 07:11:58;;;;;;;0.10;0.10;;;;;;;23.12;47.24;100084.53;5129501;27;20066;-28
2022/05/24 07:14:24;;;;;;;0.08;0.08;;;;;;;23.12;47.25;100084.53;5116495;27;20264;-28
2022/05/24 07:16:51;;;;;;;0.10;0.10;;;;;;;23.13;46.96;100088.13;5134543;27;20047;-28
2022/05/24 07:19:18;;;;;;;0.10;0.10;;;;;;;23.14;47.13;100092.53;5130395;27;20410;-28
2022/05/24 07:21:44;;;;;;;0.10;0.10;;;;;;;23.14;47.15;100098.88;5135156;27;20078;-29
2022/05/24 07:24:10;;;;;;;0.10;0.10;;;;;;;23.18;47.20;100094.31;5138218;27;20146;-27
2022/05/24 07:26:36;;;;;;;0.10;0.10;;;;;;;23.18;47.14;100099.06;5141842;27;20070;-27
2022/05/24 07:29:19;;;;;;;0.10;0.10;;;;;;;23.19;47.02;100106.25;5135840;27;20043;-28
2022/05/24 07:31:45;;;;;;;0.10;0.10;;;;;;;23.19;47.17;100109.03;5140432;27;20042;-28
2022/05/24 07:34:10;;;;;;;0.10;0.10;;;;;;;23.19;46.95;100109.03;5136239;27;20043;-28
2022/05/24 07:36:36;;;;;;;0.10;0.10;;;;;;;23.19;47.10;100120.97;5138660;27;20046;-28
2022/05/24 07:39:02;;;;;;;0.08;0.08;;;;;;;23.12;46.67;100119.81;5137982;27;20054;-28
2022/05/24 07:47:19;;;;;;;0.10;0.10;;;;;;;23.22;46.64;100130.59;5105300;27;20047;-28
2022/05/24 07:49:45;;;;;;;0.10;0.10;;;;;;;23.12;45.79;100125.38;5134633;27;20437;-28
2022/05/24 07:52:11;;;;;;;0.10;0.10;;;;;;;23.20;46.14;100127.34;5134574;27;20278;-28
2022/05/24 07:54:36;;;;;;;0.10;0.10;;;;;;;22.80;45.26;100124.69;5135742;27;20549;-28
2022/05/24 07:57:03;;;;;;;0.10;0.10;;;;;;;23.04;45.30;100127.81;5130404;27;20433;-27
2022/05/24 07:59:29;;;;;;;0.10;0.10;;;;;;;23.15;45.32;100119.19;5131382;27;20161;-28
2022/05/24 08:01:55;;;;;;;0.10;0.10;;;;;;;23.19;45.44;100122.94;5127752;27;20649;-28
2022/05/24 08:04:21;;;;;;;0.10;0.10;;;;;;;23.21;45.61;100127.00;5137272;27;20095;-27
2022/05/24 08:06:46;;;;;;;0.10;0.10;;;;;;;23.24;45.59;100117.22;5102771;27;20085;-27
2022/05/24 08:09:12;;;;;;;0.10;0.10;;;;;;;23.26;45.77;100118.50;5097870;27;20312;-28
2022/05/24 08:11:38;;;;;;;0.10;0.10;;;;;;;23.27;45.77;100122.09;5129426;27;20054;-28
2022/05/24 08:14:06;;;;;;;0.10;0.10;;;;;;;23.28;45.90;100119.00;5130789;27;20405;-28
2022/05/24 08:16:32;;;;;;;0.00;0.00;;;;;;;23.31;45.91;100122.25;5130233;27;20181;-28
2022/05/24 08:18:59;;;;;;;0.10;0.10;;;;;;;23.31;45.81;100119.47;5128286;27;20050;-28
2022/05/24 08:21:25;;;;;;;0.10;0.10;;;;;;;23.31;45.93;100120.28;5116478;27;20133;-28
2022/05/24 08:23:51;;;;;;;0.10;0.10;;;;;;;23.33;45.95;100123.56;5112279;27;20057;-28
2022/05/24 08:26:18;;;;;;;0.10;0.10;;;;;;;23.29;45.64;100142.03;5133186;27;20054;-28
2022/05/24 08:28:43;;;;;;;0.00;0.00;;;;;;;23.35;45.81;100137.94;5135215;27;20370;-28
2022/05/24 08:31:09;;;;;;;0.00;0.00;;;;;;;23.37;45.92;100143.19;5116312;27;20054;-28
2022/05/24 08:33:36;;;;;;;0.10;0.10;;;;;;;23.37;45.71;100154.31;5130842;27;21663;-28
2022/05/24 08:36:02;;;;;;;0.00;0.00;;;;;;;23.37;45.65;100149.56;5131161;27;20078;-29
2022/05/24 08:38:28;;;;;;;0.10;0.10;;;;;;;23.38;45.77;100145.63;5124538;27;20137;-28
2022/05/24 08:41:00;;;;;;;0.10;0.10;;;;;;;23.39;45.77;100152.81;5127023;27;20047;-28
2022/05/24 08:43:50;;;;;;;0.10;0.10;;;;;;;23.42;45.45;100143.00;5112227;27;20556;-27
2022/05/24 08:49:07;;;;;;;0.10;0.10;;;;;;;23.46;45.61;100153.13;5119758;27;20496;-28
2022/05/24 08:51:39;;;;;;;0.10;0.10;;;;;;;23.46;45.62;100157.88;5133503;27;20154;-28
2022/05/24 08:54:10;;;;;;;0.10;0.10;;;;;;;23.47;45.58;100167.84;5136508;27;20449;-28
2022/05/24 08:56:44;;;;;;;0.10;0.10;;;;;;;23.47;45.59;100170.63;5134002;27;20134;-28
2022/05/24 08:59:33;;;;;;;0.00;0.00;;;;;;;23.48;45.55;100178.63;5131539;27;20089;-28
2022/05/24 09:02:00;;;;;;;0.00;0.00;;;;;;;23.50;45.66;100175.53;5126171;27;20071;-27
2022/05/24 09:04:27;;;;;;;0.10;0.10;;;;;;;23.48;45.65;100175.03;5121085;27;20046;-28
2022/05/24 09:06:59;;;;;;;0.00;0.00;;;;;;;23.51;45.63;100185.50;5140529;27;20047;-28
2022/05/24 09:09:39;;;;;;;0.10;0.10;;;;;;;23.50;45.70;100193.03;5136159;27;20482;-28
2022/05/24 09:12:44;;;;;;;0.10;0.10;;;;;;;23.52;45.44;100199.06;5119624;27;20066;-28
2022/05/24 09:15:32;;;;;;;0.10;0.10;;;;;;;23.52;45.75;100201.84;5126136;27;20677;-28
2022/05/24 09:18:07;;;;;;;0.10;0.10;;;;;;;23.52;45.52;100201.84;5116760;27;20078;-28
2022/05/24 09:20:38;;;;;;;0.10;0.10;;;;;;;23.52;45.66;100210.16;5132195;27;20072;-27
2022/05/24 09:23:41;;;;;;;0.10;0.10;;;;;;;23.54;45.42;100213.47;5121710;27;20484;-29
2022/05/24 09:26:09;;;;;;;0.00;0.00;;;;;;;23.56;45.63;100217.88;5120044;27;20759;-28
2022/05/24 09:28:52;;;;;;;0.10;0.10;;;;;;;23.57;45.52;100219.50;5136182;27;20165;-28
2022/05/24 09:31:23;;;;;;;0.10;0.10;;;;;;;23.57;45.40;100214.75;5136659;27;20346;-28
2022/05/24 09:33:54;;;;;;;0.10;0.10;;;;;;;23.57;45.34;100219.50;5128471;27;20528;-28
2022/05/24 09:36:41;;;;;;;0.10;0.10;;;;;;;23.57;45.46;100223.09;5129581;27;20126;-28
2022/05/24 09:39:27;;;;;;;0.10;0.10;;;;;;;23.58;45.38;100221.16;5108497;27;20493;-28
2022/05/24 09:41:57;;;;;;;0.00;0.00;;;;;;;23.58;45.38;100232.28;5113245;27;20078;-28
2022/05/24 09:44:22;;;;;;;0.10;0.10;;;;;;;23.61;45.25;100231.59;5130610;27;20537;-27
2022/05/24 09:46:48;;;;;;;0.10;0.10;;;;;;;23.60;45.30;100243.84;5135396;27;20095;-28
2022/05/24 09:52:08;;;;;;;0.00;0.00;;;;;;;23.60;45.24;100239.13;5134427;27;20250;-32
2022/05/24 09:54:34;;;;;;;0.10;0.10;;;;;;;23.60;45.24;100244.69;5111005;27;20109;-33
2022/05/24 09:57:05;;;;;;;0.10;0.10;;;;;;;23.59;45.28;100245.81;5121287;27;20062;-32
2022/05/24 09:59:32;;;;;;;0.10;0.10;;;;;;;23.61;45.16;100237.16;5122765;27;20166;-31
2022/05/24 10:01:59;;;;;;;0.08;0.08;;;;;;;23.59;45.37;100247.78;5126346;27;20142;-32
2022/05/24 10:04:29;;;;;;;0.10;0.10;;;;;;;23.58;45.15;100243.38;5110760;27;20126;-32
2022/05/24 10:07:01;;;;;;;0.00;0.00;;;;;;;23.59;45.14;100242.22;5108830;27;20059;-32
2022/05/24 10:09:45;;;;;;;0.10;0.10;;;;;;;23.60;45.13;100243.84;5105240;27;20113;-32
2022/05/24 10:12:22;;;;;;;0.10;0.10;;;;;;;23.58;45.03;100246.16;5113507;27;20047;-32
2022/05/24 10:14:56;;;;;;;0.00;0.00;;;;;;;23.57;45.33;100248.09;5112724;27;20170;-32
2022/05/24 10:17:31;;;;;;;0.10;0.10;;;;;;;23.58;45.13;100254.50;5097048;27;20558;-30
2022/05/24 10:20:18;;;;;;;0.03;0.03;;;;;;;23.59;45.24;100261.69;5116385;27;20078;-33
2022/05/24 10:22:53;;;;;;;0.10;0.10;;;;;;;23.59;45.21;100264.47;5114742;27;20897;-34
2022/05/24 10:25:26;;;;;;;0.10;0.10;;;;;;;23.58;45.19;100248.94;5117962;27;20130;-32
2022/05/24 10:28:18;;;;;;;0.10;0.10;;;;;;;23.59;44.90;100247.78;5112470;27;20182;-31
2022/05/24 10:30:54;;;;;;;0.10;0.10;;;;;;;23.47;43.80;100245.66;5125249;27;20051;-34
2022/05/24 10:40:00;;;;;;;0.10;0.10;;;;;;;23.36;43.71;100259.06;5101009;28;20126;-31
2022/05/24 10:42:51;;;;;;;0.10;0.10;;;;;;;23.51;43.54;100278.03;5096042;27;20086;-33
2022/05/24 10:45:21;;;;;;;0.10;0.10;;;;;;;23.53;43.61;100272.97;5099433;27;20489;-34
2022/05/24 10:47:55;;;;;;;0.10;0.10;;;;;;;23.54;43.82;100269.03;5094058;27;20134;-32
2022/05/24 10:50:30;;;;;;;0.20;0.20;;;;;;;23.29;41.34;100278.97;5114858;27;20067;-34
2022/05/24 10:53:00;;;;;;;0.10;0.10;;;;;;;23.44;42.33;100286.03;5115989;27;20065;-32
2022/05/24 10:55:45;;;;;;;0.10;0.10;;;;;;;23.54;42.79;100276.56;5111285;27;20054;-33
2022/05/24 10:58:14;;;;;;;0.10;0.10;;;;;;;23.56;42.91;100267.88;5113455;27;20074;-33
2022/05/24 11:00:44;;;;;;;0.10;0.10;;;;;;;23.59;43.20;100275.59;5116405;27;20075;-35
2022/05/24 11:03:13;;;;;;;0.10;0.10;;;;;;;23.60;43.00;100278.03;5103374;28;20067;-32
2022/05/24 11:06:03;;;;;;;0.05;0.05;;;;;;;23.60;43.23;100272.47;5084679;28;20097;-35
2022/05/24 11:08:39;;;;;;;0.10;0.10;;;;;;;23.61;43.24;100273.28;5086527;28;20470;-38
2022/05/24 11:11:14;;;;;;;0.10;0.10;;;;;;;23.62;43.31;100277.69;5103992;28;20522;-33
2022/05/24 11:13:44;;;;;;;0.10;0.10;;;;;;;23.63;43.49;100271.81;5107193;28;20097;-33
2022/05/24 11:16:16;;;;;;;0.10;0.10;;;;;;;23.64;43.53;100279.00;5084408;28;20086;-33
2022/05/24 11:18:42;;;;;;;0.10;0.10;;;;;;;23.63;43.45;100285.72;5100873;28;20359;-31
2022/05/24 11:21:12;;;;;;;0.10;0.10;;;;;;;23.65;43.50;100288.19;5100592;28;20080;-35
2022/05/24 11:23:46;;;;;;;0.00;0.00;;;;;;;23.64;43.52;100290.13;5098506;28;20120;-34
2022/05/24 11:26:32;;;;;;;0.10;0.10;;;;;;;23.66;43.35;100287.88;5103016;28;20139;-36
2022/05/24 11:29:17;;;;;;;0.00;0.00;;;;;;;23.66;43.47;100287.88;5086150;28;20073;-36
2022/05/24 11:31:51;;;;;;;0.00;0.00;;;;;;;23.67;43.55;100278.41;5100745;28;20189;-34
2022/05/24 11:34:26;;;;;;;0.20;0.20;;;;;;;23.54;40.72;100284.91;5099631;28;20158;-35
2022/05/24 11:37:03;;;;;;;0.10;0.10;;;;;;;23.63;41.86;100284.91;5096212;28;20117;-34
2022/05/24 11:39:32;;;;;;;0.20;0.20;;;;;;;23.67;42.46;100289.53;5099527;28;20130;-33
2022/05/24 11:42:23;;;;;;;0.00;0.00;;;;;;;23.68;42.63;100282.81;5099422;28;20134;-34
2022/05/24 11:44:50;;;;;;;0.10;0.10;;;;;;;23.69;42.75;100283.63;5081151;28;20469;-32
2022/05/24 12:09:25;;;;;;;0.10;0.10;;;;;;;23.75;43.17;100312.91;5139236;27;20137;-30
2022/05/24 12:12:12;;;;;;;0.00;0.00;;;;;;;23.75;43.25;100310.94;5160775;27;20099;-30
2022/05/24 12:14:39;;;;;;;0.10;0.10;;;;;;;23.76;43.22;100317.31;5144435;27;20173;-30
2022/05/24 12:19:45;;;;;;;0.00;0.00;;;;;;;23.69;42.97;100322.53;5154081;27;20209;-29
2022/05/24 12:22:16;;;;;;;0.10;0.10;;;;;;;23.76;43.00;100322.88;5152116;27;20046;-32
2022/05/24 12:27:43;;;;;;;0.10;0.10;;;;;;;23.79;43.03;100322.22;5158529;27;20205;-31
2022/05/24 12:30:31;;;;;;;0.10;0.10;;;;;;;23.78;43.15;100326.13;5141506;27;20137;-31
2022/05/24 12:33:09;;;;;;;0.10;0.10;;;;;;;23.79;43.15;100338.88;5134450;27;20176;-32
2022/05/24 12:35:35;;;;;;;0.10;0.10;;;;;;;23.78;43.23;100340.84;5147631;27;20126;-33
2022/05/24 12:38:01;;;;;;;0.10;0.10;;;;;;;23.78;43.16;100343.63;5146045;27;20046;-32
2022/05/24 12:40:29;;;;;;;0.10;0.10;;;;;;;23.79;43.06;100350.00;5150770;27;20451;-31
2022/05/24 12:42:58;;;;;;;0.10;0.10;;;;;;;23.81;43.16;100342.19;5149941;27;20066;-31